createdAt,value
2018-11-06T00:01:53.452Z,97386.29
2018-11-06T00:05:28.221Z,97376.96
2018-11-06T00:07:58.888Z,97385.30
2018-11-06T00:10:31.396Z,97381.14
2018-11-06T00:13:02.364Z,97380.66
2018-11-06T00:15:33.278Z,97380.44
2018-11-06T00:18:05.332Z,97373.46
2018-11-06T00:20:36.727Z,97367.45
2018-11-06T00:23:07.452Z,97367.45
2018-11-06T00:25:38.101Z,97366.25
2018-11-06T00:28:08.794Z,97359.50
2018-11-06T00:30:40.103Z,97351.00
2018-11-06T00:33:10.707Z,97352.85
2018-11-06T00:35:41.414Z,97360.64
2018-11-06T00:38:12.915Z,97365.17
2018-11-06T00:40:43.556Z,97358.16
2018-11-06T00:43:13.976Z,97357.92
2018-11-06T00:45:44.569Z,97363.34
2018-11-06T00:48:15.285Z,97361.66
2018-11-06T00:50:45.923Z,97369.94
2018-11-06T00:53:16.564Z,97362.36
2018-11-06T00:55:47.220Z,97362.31
2018-11-06T00:58:18.025Z,97360.52
2018-11-06T01:00:48.599Z,97362.92
2018-11-06T01:03:19.290Z,97362.85
2018-11-06T01:05:50.895Z,97366.09
2018-11-06T01:08:21.682Z,97363.41
2018-11-06T01:10:52.367Z,97357.92
2018-11-06T01:13:23.048Z,97356.67
2018-11-06T01:15:53.577Z,97365.59
2018-11-06T01:18:24.184Z,97361.03
2018-11-06T01:20:54.829Z,97361.61
2018-11-06T01:23:25.796Z,97355.73
2018-11-06T01:25:56.382Z,97350.98
2018-11-06T01:28:27.248Z,97348.68
2018-11-06T01:30:59.160Z,97341.06
2018-11-06T01:33:29.800Z,97344.37
2018-11-06T01:36:00.553Z,97339.55
2018-11-06T01:38:31.065Z,97333.72
2018-11-06T01:41:01.788Z,97337.17
2018-11-06T01:43:32.553Z,97331.61
2018-11-06T01:46:02.997Z,97331.61
2018-11-06T01:48:33.625Z,97321.70
2018-11-06T01:51:04.325Z,97319.45
2018-11-06T01:53:35.256Z,97326.92
2018-11-06T01:56:05.884Z,97321.62
2018-11-06T01:58:36.688Z,97330.26
2018-11-06T02:01:07.379Z,97331.89
2018-11-06T02:03:38.844Z,97328.59
2018-11-06T02:06:10.053Z,97330.16
2018-11-06T02:08:40.675Z,97335.34
2018-11-06T02:11:11.436Z,97335.13
2018-11-06T02:13:42.150Z,97333.91
2018-11-06T02:16:12.831Z,97333.18
2018-11-06T02:18:44.151Z,97327.42
2018-11-06T02:21:16.184Z,97324.53
2018-11-06T02:23:49.196Z,97328.45
2018-11-06T02:26:20.095Z,97324.94
2018-11-06T02:28:50.989Z,97328.11
2018-11-06T02:31:22.369Z,97329.85
2018-11-06T02:33:53.469Z,97322.34
2018-11-06T02:36:24.720Z,97324.31
2018-11-06T02:38:56.248Z,97327.59
2018-11-06T02:41:27.231Z,97329.77
2018-11-06T02:43:58.232Z,97332.56
2018-11-06T02:46:29.967Z,97333.36
2018-11-06T02:49:01.033Z,97330.59
2018-11-06T02:51:32.059Z,97327.90
2018-11-06T02:54:02.844Z,97314.32
2018-11-06T02:56:33.523Z,97316.75
2018-11-06T02:59:04.385Z,97310.84
2018-11-06T03:01:34.982Z,97323.44
2018-11-06T03:04:06.152Z,97320.91
2018-11-06T03:06:36.765Z,97312.44
2018-11-06T03:09:08.362Z,97315.41
2018-11-06T03:11:39.040Z,97318.34
2018-11-06T03:14:09.697Z,97320.70
2018-11-06T03:16:40.438Z,97322.81
2018-11-06T03:19:11.273Z,97320.59
2018-11-06T03:21:41.871Z,97321.20
2018-11-06T03:24:12.624Z,97321.11
2018-11-06T03:26:43.242Z,97317.90
2018-11-06T03:29:14.094Z,97327.39
2018-11-06T03:31:45.128Z,97329.61
2018-11-06T03:34:15.772Z,97331.59
2018-11-06T03:36:46.699Z,97330.43
2018-11-06T03:39:17.320Z,97326.81
2018-11-06T03:41:47.958Z,97337.56
2018-11-06T03:44:18.668Z,97339.16
2018-11-06T03:46:49.699Z,97340.50
2018-11-06T03:49:20.352Z,97333.50
2018-11-06T03:51:51.019Z,97326.64
2018-11-06T03:54:21.912Z,97325.73
2018-11-06T03:56:52.484Z,97316.95
2018-11-06T03:59:24.201Z,97313.92
2018-11-06T04:01:55.155Z,97319.89
2018-11-06T04:04:25.868Z,97327.05
2018-11-06T04:06:56.522Z,97331.04
2018-11-06T04:09:27.132Z,97326.57
2018-11-06T04:11:57.879Z,97322.27
2018-11-06T04:14:28.512Z,97327.36
2018-11-06T04:16:59.160Z,97326.44
2018-11-06T04:19:29.864Z,97325.37
2018-11-06T04:22:01.359Z,97326.57
2018-11-06T04:24:31.939Z,97324.36
2018-11-06T04:27:02.708Z,97333.22
2018-11-06T04:29:33.312Z,97333.06
2018-11-06T04:32:03.959Z,97335.34
2018-11-06T04:34:35.084Z,97341.18
2018-11-06T04:37:05.935Z,97345.30
2018-11-06T04:39:36.851Z,97338.83
2018-11-06T04:42:07.924Z,97338.99
2018-11-06T04:44:38.942Z,97338.48
2018-11-06T04:47:09.700Z,97340.43
2018-11-06T04:49:40.676Z,97343.39
2018-11-06T04:52:11.879Z,97338.72
2018-11-06T04:54:45.197Z,97340.09
2018-11-06T04:57:16.313Z,97336.57
2018-11-06T04:59:47.150Z,97333.39
2018-11-06T05:02:18.960Z,97327.91
2018-11-06T05:04:52.548Z,97327.22
2018-11-06T05:07:23.223Z,97329.68
2018-11-06T05:09:54.028Z,97325.48
2018-11-06T05:12:25.013Z,97323.53
2018-11-06T05:14:55.744Z,97321.80
2018-11-06T05:17:27.124Z,97325.66
2018-11-06T05:19:57.715Z,97327.56
2018-11-06T05:22:28.524Z,97329.17
2018-11-06T05:24:59.120Z,97330.23
2018-11-06T05:27:29.849Z,97335.52
2018-11-06T05:30:00.973Z,97342.13
2018-11-06T05:32:31.551Z,97343.91
2018-11-06T05:35:02.203Z,97343.91
2018-11-06T05:37:33.097Z,97337.92
2018-11-06T05:40:20.842Z,97341.14
2018-11-06T05:42:53.094Z,97334.22
2018-11-06T05:45:24.970Z,97336.20
2018-11-06T05:47:56.036Z,97339.36
2018-11-06T05:50:27.097Z,97331.94
2018-11-06T05:52:58.975Z,97334.43
2018-11-06T05:55:29.940Z,97323.97
2018-11-06T05:58:00.807Z,97334.03
2018-11-06T06:00:31.877Z,97339.02
2018-11-06T06:03:03.622Z,97347.16
2018-11-06T06:05:35.893Z,97346.59
2018-11-06T06:08:07.908Z,97343.85
2018-11-06T06:10:39.676Z,97346.59
2018-11-06T06:13:10.546Z,97342.46
2018-11-06T06:15:41.639Z,97344.77
2018-11-06T06:18:12.703Z,97336.82
2018-11-06T06:20:43.762Z,97333.13
2018-11-06T06:23:15.323Z,97325.27
2018-11-06T06:25:46.253Z,97328.52
2018-11-06T06:28:17.484Z,97330.05
2018-11-06T06:30:48.228Z,97335.79
2018-11-06T06:33:19.103Z,97329.55
2018-11-06T06:35:49.689Z,97330.26
2018-11-06T06:38:21.076Z,97319.09
2018-11-06T06:40:52.240Z,97315.86
2018-11-06T06:43:23.320Z,97317.41
2018-11-06T06:45:53.989Z,97314.56
2018-11-06T06:48:24.592Z,97312.04
2018-11-06T06:50:55.179Z,97315.95
2018-11-06T06:53:26.395Z,97312.84
2018-11-06T06:55:57.225Z,97307.72
2018-11-06T06:58:28.157Z,97299.62
2018-11-06T07:00:58.882Z,97297.91
2018-11-06T07:03:30.295Z,97298.03
2018-11-06T07:06:02.141Z,97295.55
2018-11-06T07:08:33.098Z,97299.84
2018-11-06T07:11:05.331Z,97301.95
2018-11-06T07:13:37.145Z,97297.45
2018-11-06T07:16:10.333Z,97307.93
2018-11-06T07:18:46.255Z,97306.47
2018-11-06T07:21:18.161Z,97316.23
2018-11-06T07:23:48.764Z,97321.36
2018-11-06T07:26:19.399Z,97318.48
2018-11-06T07:28:54.899Z,97329.19
2018-11-06T07:31:26.033Z,97325.83
2018-11-06T07:33:56.607Z,97324.77
2018-11-06T07:36:27.244Z,97312.21
2018-11-06T07:38:59.421Z,97315.31
2018-11-06T07:41:30.188Z,97310.71
2018-11-06T07:44:01.626Z,97312.11
2018-11-06T07:46:33.056Z,97309.28
2018-11-06T07:49:03.712Z,97313.78
2018-11-06T07:51:34.887Z,97314.72
2018-11-06T07:54:05.393Z,97312.95
2018-11-06T07:56:36.099Z,97303.92
2018-11-06T07:59:07.500Z,97305.27
2018-11-06T08:01:38.192Z,97305.53
2018-11-06T08:04:08.970Z,97303.34
2018-11-06T08:06:44.079Z,97303.72
2018-11-06T08:09:16.111Z,97310.25
2018-11-06T08:11:46.968Z,97307.80
2018-11-06T08:14:17.797Z,97311.53
2018-11-06T08:16:49.169Z,97310.85
2018-11-06T08:19:20.089Z,97319.52
2018-11-06T08:21:50.959Z,97309.08
2018-11-06T08:24:28.595Z,97311.06
2018-11-06T08:27:00.293Z,97308.98
2018-11-06T08:29:30.924Z,97310.09
2018-11-06T08:32:02.187Z,97306.86
2018-11-06T08:34:32.559Z,97301.44
2018-11-06T08:37:03.645Z,97304.41
2018-11-06T08:39:34.531Z,97307.61
2018-11-06T08:42:06.570Z,97307.53
2018-11-06T08:44:37.592Z,97310.87
2018-11-06T08:47:08.693Z,97309.40
2018-11-06T08:49:39.343Z,97309.30
2018-11-06T08:52:10.031Z,97311.02
2018-11-06T08:54:41.183Z,97310.09
2018-11-06T08:57:12.032Z,97310.00
2018-11-06T08:59:43.840Z,97312.78
2018-11-06T09:02:14.641Z,97312.27
2018-11-06T09:04:45.305Z,97307.66
2018-11-06T09:07:16.004Z,97310.31
2018-11-06T09:09:49.156Z,97314.31
2018-11-06T09:12:20.436Z,97311.25
2018-11-06T09:14:51.081Z,97313.41
2018-11-06T09:17:21.742Z,97311.23
2018-11-06T09:19:52.462Z,97299.29
2018-11-06T09:22:23.832Z,97303.06
2018-11-06T09:24:57.852Z,97301.13
2018-11-06T09:27:29.112Z,97296.13
2018-11-06T09:30:03.967Z,97290.80
2018-11-06T09:32:35.219Z,97291.08
2018-11-06T09:35:06.931Z,97288.59
2018-11-06T09:37:42.358Z,97287.45
2018-11-06T09:40:15.743Z,97285.75
2018-11-06T09:42:46.668Z,97283.17
2018-11-06T09:45:17.529Z,97287.63
2018-11-06T09:47:48.539Z,97289.64
2018-11-06T09:50:19.895Z,97288.73
2018-11-06T09:52:50.699Z,97292.16
2018-11-06T09:55:22.003Z,97287.06
2018-11-06T09:57:52.855Z,97287.11
2018-11-06T10:00:24.486Z,97289.93
2018-11-06T10:02:55.196Z,97291.95
2018-11-06T10:05:26.721Z,97297.05
2018-11-06T10:07:57.530Z,97286.93
2018-11-06T10:10:28.404Z,97289.95
2018-11-06T10:12:59.229Z,97286.36
2018-11-06T10:15:29.862Z,97283.73
2018-11-06T10:18:00.684Z,97274.76
2018-11-06T10:20:31.496Z,97269.03
2018-11-06T10:23:02.323Z,97265.97
2018-11-06T10:25:33.467Z,97271.44
2018-11-06T10:28:04.176Z,97273.47
2018-11-06T10:30:35.775Z,97271.55
2018-11-06T10:33:07.753Z,97272.27
2018-11-06T10:35:39.776Z,97271.78
2018-11-06T10:38:10.930Z,97264.05
2018-11-06T10:40:43.098Z,97265.70
2018-11-06T10:43:14.044Z,97262.75
2018-11-06T10:45:45.514Z,97263.08
2018-11-06T10:48:17.947Z,97257.49
2018-11-06T10:50:48.624Z,97246.64
2018-11-06T10:53:19.232Z,97241.03
2018-11-06T10:55:49.882Z,97237.45
2018-11-06T10:58:21.028Z,97233.33
2018-11-06T11:00:57.044Z,97226.09
2018-11-06T11:04:32.228Z,97216.08
2018-11-06T11:07:02.956Z,97214.59
2018-11-06T11:09:33.675Z,97209.98
2018-11-06T11:12:04.270Z,97214.41
2018-11-06T11:14:34.867Z,97209.64
2018-11-06T11:17:06.564Z,97205.03
2018-11-06T11:19:37.325Z,97202.58
2018-11-06T11:22:08.167Z,97198.78
2018-11-06T11:24:38.865Z,97198.63
2018-11-06T11:27:10.140Z,97192.52
2018-11-06T11:29:40.976Z,97198.27
2018-11-06T11:32:11.549Z,97196.12
2018-11-06T11:34:44.024Z,97196.43
2018-11-06T11:37:14.807Z,97190.31
2018-11-06T11:39:46.738Z,97184.02
2018-11-06T11:42:18.457Z,97183.69
2018-11-06T11:44:49.530Z,97189.94
2018-11-06T11:47:20.785Z,97177.59
2018-11-06T11:49:53.517Z,97174.76
2018-11-06T11:52:25.240Z,97168.66
2018-11-06T11:54:56.628Z,97161.22
2018-11-06T11:57:28.467Z,97160.41
2018-11-06T12:00:01.109Z,97162.03
2018-11-06T12:02:31.835Z,97157.55
2018-11-06T12:05:02.722Z,97160.19
2018-11-06T12:07:33.409Z,97153.88
2018-11-06T12:10:04.068Z,97152.85
2018-11-06T12:12:34.933Z,97156.42
2018-11-06T12:15:08.055Z,97153.95
2018-11-06T12:17:38.800Z,97155.27
2018-11-06T12:20:09.612Z,97147.36
2018-11-06T12:22:40.555Z,97149.44
2018-11-06T12:25:12.113Z,97153.21
2018-11-06T12:27:43.073Z,97153.67
2018-11-06T12:30:15.574Z,97146.04
2018-11-06T12:32:46.247Z,97144.98
2018-11-06T12:35:17.044Z,97141.99
2018-11-06T12:37:47.612Z,97141.87
2018-11-06T12:40:18.548Z,97139.70
2018-11-06T12:42:49.158Z,97137.73
2018-11-06T12:45:20.063Z,97139.33
2018-11-06T12:47:50.926Z,97137.20
2018-11-06T12:50:21.519Z,97136.97
2018-11-06T12:52:52.374Z,97142.39
2018-11-06T12:55:22.984Z,97132.79
2018-11-06T12:57:53.666Z,97139.67
2018-11-06T13:00:24.385Z,97140.31
2018-11-06T13:02:55.012Z,97140.47
2018-11-06T13:05:25.773Z,97139.93
2018-11-06T13:07:57.093Z,97144.34
2018-11-06T13:10:27.711Z,97141.53
2018-11-06T13:12:58.139Z,97137.54
2018-11-06T13:15:28.913Z,97142.47
2018-11-06T13:18:00.514Z,97139.14
2018-11-06T13:20:33.099Z,97145.56
2018-11-06T13:23:06.867Z,97142.75
2018-11-06T13:25:38.853Z,97137.28
2018-11-06T13:28:10.017Z,97133.67
2018-11-06T13:30:42.691Z,97125.75
2018-11-06T13:33:14.155Z,97122.73
2018-11-06T13:35:44.955Z,97119.77
2018-11-06T13:38:19.255Z,97114.13
2018-11-06T13:40:50.012Z,97115.44
2018-11-06T13:43:20.639Z,97117.64
2018-11-06T13:45:51.615Z,97127.07
2018-11-06T13:48:22.120Z,97131.03
2018-11-06T13:50:52.808Z,97123.91
2018-11-06T13:53:23.487Z,97127.42
2018-11-06T13:55:54.119Z,97121.69
2018-11-06T13:58:25.556Z,97123.12
2018-11-06T14:00:57.033Z,97114.23
2018-11-06T14:03:27.855Z,97120.54
2018-11-06T14:05:59.152Z,97116.75
2018-11-06T14:08:30.498Z,97121.53
2018-11-06T14:11:01.189Z,97117.23
2018-11-06T14:13:31.939Z,97108.16
2018-11-06T14:16:03.615Z,97109.03
2018-11-06T14:18:34.883Z,97107.55
2018-11-06T14:21:05.757Z,97110.91
2018-11-06T14:23:37.987Z,97112.11
2018-11-06T14:26:08.982Z,97117.57
2018-11-06T14:28:39.752Z,97118.80
2018-11-06T14:33:40.047Z,97121.48
2018-11-06T14:38:41.407Z,97113.12
2018-11-06T14:41:12.444Z,97116.97
2018-11-06T14:43:45.760Z,97113.71
2018-11-06T14:46:17.127Z,97112.80
2018-11-06T14:48:48.769Z,97115.30
2018-11-06T14:51:22.557Z,97119.30
2018-11-06T14:53:54.215Z,97119.16
2018-11-06T14:56:25.378Z,97121.48
2018-11-06T14:58:57.518Z,97123.16
2018-11-06T15:01:28.389Z,97123.19
2018-11-06T15:04:01.048Z,97121.59
2018-11-06T15:06:32.858Z,97118.33
2018-11-06T15:09:04.988Z,97118.33
2018-11-06T15:11:38.529Z,97115.06
2018-11-06T15:14:09.416Z,97109.66
2018-11-06T15:16:40.047Z,97115.95
2018-11-06T15:19:10.851Z,97125.53
2018-11-06T15:21:41.815Z,97130.00
2018-11-06T15:24:12.576Z,97128.89
2018-11-06T15:26:43.362Z,97130.20
2018-11-06T15:29:14.077Z,97131.36
2018-11-06T15:31:44.816Z,97130.72
2018-11-06T15:34:15.555Z,97137.34
2018-11-06T15:36:46.284Z,97140.81
2018-11-06T15:39:16.955Z,97138.95
2018-11-06T15:41:48.252Z,97144.26
2018-11-06T15:44:19.207Z,97146.24
2018-11-06T15:46:50.014Z,97150.19
2018-11-06T15:49:20.657Z,97152.34
2018-11-06T15:51:51.407Z,97154.67
2018-11-06T15:54:22.124Z,97154.33
2018-11-06T15:56:52.970Z,97159.11
2018-11-06T15:59:23.548Z,97157.28
2018-11-06T16:01:54.456Z,97157.45
2018-11-06T16:04:27.249Z,97156.16
2018-11-06T16:06:58.394Z,97158.13
2018-11-06T16:09:33.935Z,97159.13
2018-11-06T16:12:05.065Z,97161.27
2018-11-06T16:14:38.388Z,97162.41
2018-11-06T16:17:10.632Z,97170.13
2018-11-06T16:19:42.246Z,97173.09
2018-11-06T16:22:13.008Z,97179.69
2018-11-06T16:24:45.185Z,97193.00
2018-11-06T16:27:15.877Z,97194.98
2018-11-06T16:29:46.609Z,97196.44
2018-11-06T16:32:17.663Z,97204.66
2018-11-06T16:34:48.260Z,97209.41
2018-11-06T16:37:19.320Z,97228.92
2018-11-06T16:39:50.060Z,97239.11
2018-11-06T16:42:21.234Z,97252.42
2018-11-06T16:44:51.955Z,97264.02
2018-11-06T16:47:22.904Z,97287.06
2018-11-06T16:49:53.652Z,97289.14
2018-11-06T16:52:24.972Z,97293.77
2018-11-06T16:54:55.695Z,97314.34
2018-11-06T16:57:26.540Z,97328.30
2018-11-06T16:59:57.388Z,97337.72
2018-11-06T17:02:28.373Z,97348.11
2018-11-06T17:04:58.993Z,97362.25
2018-11-06T17:07:30.590Z,97362.92
2018-11-06T17:10:03.166Z,97370.71
2018-11-06T17:12:34.015Z,97384.17
2018-11-06T17:15:05.267Z,97376.38
2018-11-06T17:17:35.880Z,97380.75
2018-11-06T17:20:08.753Z,97392.69
2018-11-06T17:22:40.529Z,97387.88
2018-11-06T17:25:13.721Z,97404.86
2018-11-06T17:27:46.325Z,97409.42
2018-11-06T17:30:18.083Z,97411.63
2018-11-06T17:32:49.324Z,97417.78
2018-11-06T17:35:21.842Z,97427.70
2018-11-06T17:37:53.196Z,97423.73
2018-11-06T17:40:24.659Z,97437.58
2018-11-06T17:42:55.307Z,97437.86
2018-11-06T17:45:25.988Z,97440.72
2018-11-06T17:47:56.780Z,97439.83
2018-11-06T17:50:27.419Z,97441.16
2018-11-06T17:52:58.260Z,97442.74
2018-11-06T17:55:28.970Z,97449.75
2018-11-06T17:57:59.732Z,97452.52
2018-11-06T18:00:30.351Z,97456.31
2018-11-06T18:03:01.096Z,97451.19
2018-11-06T18:05:34.772Z,97459.41
2018-11-06T18:08:06.041Z,97465.30
2018-11-06T18:10:36.873Z,97472.03
2018-11-06T18:13:07.785Z,97476.91
2018-11-06T18:15:38.512Z,97479.52
2018-11-06T18:39:22.423Z,97505.27
2018-11-06T18:44:52.138Z,97514.48
2018-11-06T18:50:38.749Z,97522.16
2018-11-06T19:23:12.153Z,97551.28
2018-11-06T19:56:05.348Z,97562.70
2018-11-06T19:58:42.435Z,97557.81
2018-11-06T20:09:05.296Z,97572.18
2018-11-06T20:11:39.306Z,97575.48
2018-11-06T20:24:37.039Z,97590.29
2018-11-06T20:27:08.973Z,97598.24
2018-11-06T20:32:22.631Z,97593.47
2018-11-06T20:40:28.159Z,97586.81
2018-11-06T20:42:58.973Z,97591.59
2018-11-06T20:55:59.160Z,97590.58
2018-11-06T20:58:32.132Z,97595.31
2018-11-06T21:11:40.706Z,97593.59
2018-11-06T21:14:14.214Z,97596.80
2018-11-06T21:19:22.434Z,97597.74
2018-11-06T21:21:56.013Z,97592.77
2018-11-06T21:29:42.575Z,97593.23
2018-11-06T21:32:13.513Z,97586.50
2018-11-06T21:45:39.907Z,97586.59
2018-11-06T21:50:48.434Z,97589.67
2018-11-06T21:53:19.140Z,97590.02
2018-11-06T21:58:26.737Z,97594.75
2018-11-06T22:00:57.584Z,97590.14
2018-11-06T22:06:12.879Z,97592.75
2018-11-06T22:08:43.663Z,97592.49
2018-11-06T22:13:49.816Z,97600.31
2018-11-06T22:18:58.593Z,97611.88
2018-11-06T22:21:33.930Z,97611.20
2018-11-06T22:24:05.229Z,97606.78
2018-11-06T22:26:36.123Z,97617.34
2018-11-06T22:29:08.182Z,97622.65
2018-11-06T22:31:39.122Z,97612.48
2018-11-06T22:34:11.386Z,97625.99
2018-11-06T22:36:42.229Z,97630.49
2018-11-06T22:39:13.192Z,97625.28
2018-11-06T22:41:43.832Z,97622.20
2018-11-06T22:44:14.467Z,97624.06
2018-11-06T22:46:49.363Z,97628.31
2018-11-06T22:49:21.092Z,97630.66
2018-11-06T22:51:51.881Z,97634.69
2018-11-06T22:54:23.027Z,97642.69
2018-11-06T22:56:55.504Z,97643.47
2018-11-06T22:59:26.176Z,97636.55
2018-11-06T23:01:57.015Z,97630.48
2018-11-06T23:04:28.107Z,97635.80
2018-11-06T23:06:58.884Z,97642.56
2018-11-06T23:09:29.708Z,97638.06
2018-11-06T23:12:00.340Z,97645.61
2018-11-06T23:14:31.164Z,97643.02
2018-11-06T23:17:02.061Z,97645.39
2018-11-06T23:19:32.808Z,97643.49
2018-11-06T23:22:03.446Z,97637.80
2018-11-06T23:24:34.180Z,97645.13
2018-11-06T23:27:04.824Z,97642.85
2018-11-06T23:29:35.463Z,97639.88
2018-11-06T23:32:07.071Z,97644.59
2018-11-06T23:34:37.917Z,97650.66
2018-11-06T23:37:08.712Z,97654.09
2018-11-06T23:39:40.166Z,97647.34
2018-11-06T23:42:10.846Z,97639.16
2018-11-06T23:44:41.701Z,97639.38
2018-11-06T23:47:12.817Z,97640.53
2018-11-06T23:49:45.174Z,97644.44
2018-11-06T23:52:16.852Z,97642.53
2018-11-06T23:54:48.692Z,97644.92
2018-11-06T23:57:20.264Z,97640.75
2018-11-06T23:59:51.656Z,97635.31
